sensor_id;sensor_type;location;lat;lon;timestamp;P1;durP1;ratioP1;P2;durP2;ratioP2
22160;SDS011;49035;48.812;11.762;2023-02-21T00:01:26;7.90;;;4.77;;
22160;SDS011;49035;48.812;11.762;2023-02-21T00:04:10;7.73;;;3.73;;
22160;SDS011;49035;48.812;11.762;2023-02-21T00:06:54;8.47;;;4.47;;
22160;SDS011;49035;48.812;11.762;2023-02-21T00:09:38;5.20;;;3.70;;
22160;SDS011;49035;48.812;11.762;2023-02-21T00:12:22;7.77;;;4.03;;
22160;SDS011;49035;48.812;11.762;2023-02-21T00:15:07;9.57;;;4.83;;
22160;SDS011;49035;48.812;11.762;2023-02-21T00:17:51;10.27;;;4.97;;
22160;SDS011;49035;48.812;11.762;2023-02-21T00:20:35;6.17;;;4.80;;
22160;SDS011;49035;48.812;11.762;2023-02-21T00:23:19;8.13;;;4.63;;
22160;SDS011;49035;48.812;11.762;2023-02-21T00:26:04;6.70;;;4.20;;
22160;SDS011;49035;48.812;11.762;2023-02-21T00:28:48;8.37;;;3.93;;
22160;SDS011;49035;48.812;11.762;2023-02-21T00:31:32;5.27;;;3.70;;
22160;SDS011;49035;48.812;11.762;2023-02-21T00:34:16;5.13;;;3.77;;
22160;SDS011;49035;48.812;11.762;2023-02-21T00:37:01;5.57;;;3.57;;
22160;SDS011;49035;48.812;11.762;2023-02-21T00:39:45;7.63;;;3.90;;
22160;SDS011;49035;48.812;11.762;2023-02-21T00:42:29;6.97;;;3.90;;
22160;SDS011;49035;48.812;11.762;2023-02-21T00:45:13;8.17;;;3.77;;
22160;SDS011;49035;48.812;11.762;2023-02-21T00:47:57;6.17;;;3.87;;
22160;SDS011;49035;48.812;11.762;2023-02-21T00:50:41;6.77;;;3.97;;
22160;SDS011;49035;48.812;11.762;2023-02-21T00:53:25;5.57;;;3.40;;
22160;SDS011;49035;48.812;11.762;2023-02-21T00:56:09;6.40;;;4.00;;
22160;SDS011;49035;48.812;11.762;2023-02-21T00:58:53;7.03;;;4.10;;
22160;SDS011;49035;48.812;11.762;2023-02-21T01:01:38;6.37;;;3.77;;
22160;SDS011;49035;48.812;11.762;2023-02-21T01:04:22;4.50;;;3.33;;
22160;SDS011;49035;48.812;11.762;2023-02-21T01:09:34;8.43;;;4.27;;
22160;SDS011;49035;48.812;11.762;2023-02-21T01:12:18;8.27;;;4.17;;
22160;SDS011;49035;48.812;11.762;2023-02-21T01:15:02;6.43;;;3.80;;
22160;SDS011;49035;48.812;11.762;2023-02-21T01:17:47;6.33;;;4.03;;
22160;SDS011;49035;48.812;11.762;2023-02-21T01:20:31;13.30;;;4.33;;
22160;SDS011;49035;48.812;11.762;2023-02-21T01:23:15;7.63;;;4.30;;
22160;SDS011;49035;48.812;11.762;2023-02-21T01:25:59;7.67;;;4.50;;
22160;SDS011;49035;48.812;11.762;2023-02-21T01:28:43;5.00;;;4.03;;
22160;SDS011;49035;48.812;11.762;2023-02-21T01:31:30;7.40;;;4.40;;
22160;SDS011;49035;48.812;11.762;2023-02-21T01:34:14;9.13;;;4.57;;
22160;SDS011;49035;48.812;11.762;2023-02-21T01:36:59;7.37;;;4.07;;
22160;SDS011;49035;48.812;11.762;2023-02-21T01:39:43;6.43;;;4.20;;
22160;SDS011;49035;48.812;11.762;2023-02-21T01:42:27;7.33;;;4.20;;
22160;SDS011;49035;48.812;11.762;2023-02-21T01:48:08;6.53;;;4.43;;
22160;SDS011;49035;48.812;11.762;2023-02-21T01:50:58;5.80;;;4.17;;
22160;SDS011;49035;48.812;11.762;2023-02-21T01:53:43;5.40;;;3.97;;
22160;SDS011;49035;48.812;11.762;2023-02-21T01:56:28;6.67;;;4.40;;
22160;SDS011;49035;48.812;11.762;2023-02-21T01:59:14;8.07;;;4.43;;
22160;SDS011;49035;48.812;11.762;2023-02-21T02:04:49;6.73;;;4.03;;
22160;SDS011;49035;48.812;11.762;2023-02-21T02:07:35;6.60;;;4.40;;
22160;SDS011;49035;48.812;11.762;2023-02-21T02:10:19;6.67;;;4.40;;
22160;SDS011;49035;48.812;11.762;2023-02-21T02:16:12;9.70;;;4.73;;
22160;SDS011;49035;48.812;11.762;2023-02-21T02:24:31;8.53;;;5.20;;
22160;SDS011;49035;48.812;11.762;2023-02-21T02:35:33;9.50;;;4.93;;
22160;SDS011;49035;48.812;11.762;2023-02-21T02:38:17;9.00;;;5.10;;
22160;SDS011;49035;48.812;11.762;2023-02-21T02:46:18;7.73;;;4.97;;
22160;SDS011;49035;48.812;11.762;2023-02-21T02:49:02;9.13;;;5.27;;
22160;SDS011;49035;48.812;11.762;2023-02-21T02:51:32;8.33;;;5.07;;
22160;SDS011;49035;48.812;11.762;2023-02-21T02:54:01;8.47;;;5.07;;
22160;SDS011;49035;48.812;11.762;2023-02-21T02:56:27;7.70;;;5.53;;
22160;SDS011;49035;48.812;11.762;2023-02-21T03:04:29;7.27;;;4.67;;
22160;SDS011;49035;48.812;11.762;2023-02-21T03:09:52;8.77;;;4.87;;
22160;SDS011;49035;48.812;11.762;2023-02-21T03:12:33;10.70;;;5.10;;
22160;SDS011;49035;48.812;11.762;2023-02-21T03:15:32;7.30;;;4.77;;
22160;SDS011;49035;48.812;11.762;2023-02-21T03:18:17;11.37;;;5.87;;
22160;SDS011;49035;48.812;11.762;2023-02-21T03:21:07;9.00;;;5.00;;
22160;SDS011;49035;48.812;11.762;2023-02-21T03:23:43;9.43;;;4.87;;
22160;SDS011;49035;48.812;11.762;2023-02-21T03:26:12;11.93;;;5.17;;
22160;SDS011;49035;48.812;11.762;2023-02-21T03:28:39;9.23;;;4.73;;
22160;SDS011;49035;48.812;11.762;2023-02-21T03:31:06;7.43;;;5.10;;
22160;SDS011;49035;48.812;11.762;2023-02-21T03:33:34;7.50;;;4.90;;
22160;SDS011;49035;48.812;11.762;2023-02-21T03:36:02;10.23;;;5.03;;
22160;SDS011;49035;48.812;11.762;2023-02-21T03:38:30;8.27;;;5.10;;
22160;SDS011;49035;48.812;11.762;2023-02-21T03:40:55;8.97;;;4.87;;
22160;SDS011;49035;48.812;11.762;2023-02-21T03:43:21;7.33;;;5.10;;
22160;SDS011;49035;48.812;11.762;2023-02-21T03:45:47;10.40;;;5.13;;
22160;SDS011;49035;48.812;11.762;2023-02-21T03:48:12;7.73;;;4.77;;
22160;SDS011;49035;48.812;11.762;2023-02-21T03:50:39;10.40;;;4.93;;
22160;SDS011;49035;48.812;11.762;2023-02-21T03:53:04;7.27;;;4.67;;
22160;SDS011;49035;48.812;11.762;2023-02-21T03:55:30;9.23;;;5.17;;
22160;SDS011;49035;48.812;11.762;2023-02-21T03:57:55;8.03;;;4.70;;
22160;SDS011;49035;48.812;11.762;2023-02-21T04:00:21;6.60;;;4.87;;
22160;SDS011;49035;48.812;11.762;2023-02-21T04:02:47;7.83;;;5.07;;
22160;SDS011;49035;48.812;11.762;2023-02-21T04:05:12;8.33;;;5.10;;
22160;SDS011;49035;48.812;11.762;2023-02-21T04:07:38;8.63;;;5.03;;
22160;SDS011;49035;48.812;11.762;2023-02-21T04:10:03;6.73;;;4.40;;
22160;SDS011;49035;48.812;11.762;2023-02-21T04:12:29;12.80;;;5.37;;
22160;SDS011;49035;48.812;11.762;2023-02-21T04:14:55;9.47;;;5.40;;
22160;SDS011;49035;48.812;11.762;2023-02-21T04:17:22;11.07;;;5.63;;
22160;SDS011;49035;48.812;11.762;2023-02-21T04:19:48;9.23;;;5.43;;
22160;SDS011;49035;48.812;11.762;2023-02-21T04:22:14;9.77;;;5.77;;
22160;SDS011;49035;48.812;11.762;2023-02-21T04:24:39;9.53;;;5.13;;
22160;SDS011;49035;48.812;11.762;2023-02-21T04:27:06;8.43;;;5.90;;
22160;SDS011;49035;48.812;11.762;2023-02-21T04:29:32;17.37;;;5.77;;
22160;SDS011;49035;48.812;11.762;2023-02-21T04:31:57;10.17;;;5.30;;
22160;SDS011;49035;48.812;11.762;2023-02-21T04:34:23;10.70;;;5.67;;
22160;SDS011;49035;48.812;11.762;2023-02-21T04:36:48;9.67;;;5.20;;
22160;SDS011;49035;48.812;11.762;2023-02-21T04:39:14;9.33;;;5.40;;
22160;SDS011;49035;48.812;11.762;2023-02-21T04:41:39;9.37;;;4.87;;
22160;SDS011;49035;48.812;11.762;2023-02-21T04:44:05;8.97;;;5.77;;
22160;SDS011;49035;48.812;11.762;2023-02-21T04:46:31;10.90;;;6.67;;
22160;SDS011;49035;48.812;11.762;2023-02-21T04:48:57;9.97;;;6.10;;
22160;SDS011;49035;48.812;11.762;2023-02-21T04:51:23;11.47;;;6.00;;
22160;SDS011;49035;48.812;11.762;2023-02-21T04:53:50;10.40;;;5.60;;
22160;SDS011;49035;48.812;11.762;2023-02-21T04:56:17;12.43;;;5.70;;
22160;SDS011;49035;48.812;11.762;2023-02-21T04:58:44;8.10;;;4.97;;
22160;SDS011;49035;48.812;11.762;2023-02-21T05:01:11;9.50;;;5.97;;
22160;SDS011;49035;48.812;11.762;2023-02-21T05:03:37;9.20;;;5.30;;
22160;SDS011;49035;48.812;11.762;2023-02-21T05:06:03;10.67;;;4.93;;
22160;SDS011;49035;48.812;11.762;2023-02-21T05:08:29;10.43;;;5.37;;
22160;SDS011;49035;48.812;11.762;2023-02-21T05:10:54;9.13;;;5.57;;
22160;SDS011;49035;48.812;11.762;2023-02-21T05:13:20;9.93;;;5.63;;
22160;SDS011;49035;48.812;11.762;2023-02-21T05:15:47;7.60;;;4.77;;
22160;SDS011;49035;48.812;11.762;2023-02-21T05:18:13;7.97;;;5.17;;
22160;SDS011;49035;48.812;11.762;2023-02-21T05:20:46;9.63;;;5.57;;
22160;SDS011;49035;48.812;11.762;2023-02-21T05:23:15;11.33;;;5.73;;
22160;SDS011;49035;48.812;11.762;2023-02-21T05:25:42;8.83;;;5.20;;
22160;SDS011;49035;48.812;11.762;2023-02-21T05:28:11;10.57;;;5.63;;
22160;SDS011;49035;48.812;11.762;2023-02-21T05:30:39;9.80;;;5.30;;
22160;SDS011;49035;48.812;11.762;2023-02-21T05:33:08;10.07;;;5.83;;
22160;SDS011;49035;48.812;11.762;2023-02-21T05:35:34;10.70;;;5.57;;
22160;SDS011;49035;48.812;11.762;2023-02-21T05:38:02;10.60;;;5.10;;
22160;SDS011;49035;48.812;11.762;2023-02-21T05:40:28;11.30;;;5.83;;
22160;SDS011;49035;48.812;11.762;2023-02-21T05:42:54;7.83;;;5.00;;
22160;SDS011;49035;48.812;11.762;2023-02-21T05:45:29;10.60;;;5.17;;
22160;SDS011;49035;48.812;11.762;2023-02-21T05:47:57;7.57;;;5.13;;
22160;SDS011;49035;48.812;11.762;2023-02-21T05:50:32;9.23;;;5.47;;
22160;SDS011;49035;48.812;11.762;2023-02-21T05:53:03;8.30;;;5.23;;
22160;SDS011;49035;48.812;11.762;2023-02-21T05:55:34;14.87;;;5.43;;
22160;SDS011;49035;48.812;11.762;2023-02-21T05:58:07;9.03;;;5.47;;
22160;SDS011;49035;48.812;11.762;2023-02-21T06:00:42;15.17;;;5.67;;
22160;SDS011;49035;48.812;11.762;2023-02-21T06:03:09;10.40;;;6.10;;
22160;SDS011;49035;48.812;11.762;2023-02-21T06:05:35;9.77;;;5.93;;
22160;SDS011;49035;48.812;11.762;2023-02-21T06:08:06;16.57;;;6.43;;
22160;SDS011;49035;48.812;11.762;2023-02-21T06:10:37;11.47;;;6.37;;
22160;SDS011;49035;48.812;11.762;2023-02-21T06:13:03;11.17;;;6.60;;
22160;SDS011;49035;48.812;11.762;2023-02-21T06:15:31;11.57;;;6.67;;
22160;SDS011;49035;48.812;11.762;2023-02-21T06:18:01;14.40;;;7.13;;
22160;SDS011;49035;48.812;11.762;2023-02-21T06:20:29;15.63;;;7.47;;
22160;SDS011;49035;48.812;11.762;2023-02-21T06:22:54;13.70;;;8.03;;
22160;SDS011;49035;48.812;11.762;2023-02-21T06:25:20;14.23;;;7.93;;
22160;SDS011;49035;48.812;11.762;2023-02-21T06:27:46;12.57;;;7.00;;
22160;SDS011;49035;48.812;11.762;2023-02-21T06:30:13;12.23;;;6.80;;
22160;SDS011;49035;48.812;11.762;2023-02-21T06:32:42;14.73;;;7.70;;
22160;SDS011;49035;48.812;11.762;2023-02-21T06:35:07;12.20;;;7.53;;
22160;SDS011;49035;48.812;11.762;2023-02-21T06:37:33;12.07;;;7.57;;
22160;SDS011;49035;48.812;11.762;2023-02-21T06:39:59;13.93;;;6.93;;
22160;SDS011;49035;48.812;11.762;2023-02-21T06:42:25;11.40;;;6.83;;
22160;SDS011;49035;48.812;11.762;2023-02-21T06:44:50;13.00;;;7.63;;
22160;SDS011;49035;48.812;11.762;2023-02-21T06:47:16;11.23;;;7.17;;
22160;SDS011;49035;48.812;11.762;2023-02-21T06:49:42;15.50;;;7.00;;
22160;SDS011;49035;48.812;11.762;2023-02-21T06:52:08;17.60;;;8.13;;
22160;SDS011;49035;48.812;11.762;2023-02-21T06:54:35;12.93;;;7.63;;
22160;SDS011;49035;48.812;11.762;2023-02-21T06:57:00;20.63;;;8.97;;
22160;SDS011;49035;48.812;11.762;2023-02-21T06:59:29;17.43;;;9.77;;
22160;SDS011;49035;48.812;11.762;2023-02-21T07:01:55;20.27;;;9.70;;
22160;SDS011;49035;48.812;11.762;2023-02-21T07:04:21;21.33;;;9.50;;
22160;SDS011;49035;48.812;11.762;2023-02-21T07:06:48;15.77;;;9.70;;
22160;SDS011;49035;48.812;11.762;2023-02-21T07:09:13;21.03;;;9.70;;
22160;SDS011;49035;48.812;11.762;2023-02-21T07:11:40;17.40;;;9.43;;
22160;SDS011;49035;48.812;11.762;2023-02-21T07:14:05;16.10;;;9.17;;
22160;SDS011;49035;48.812;11.762;2023-02-21T07:16:31;15.97;;;8.00;;
22160;SDS011;49035;48.812;11.762;2023-02-21T07:18:57;15.97;;;8.33;;
22160;SDS011;49035;48.812;11.762;2023-02-21T07:21:22;12.47;;;8.00;;
22160;SDS011;49035;48.812;11.762;2023-02-21T07:23:53;14.30;;;8.20;;
22160;SDS011;49035;48.812;11.762;2023-02-21T07:26:19;13.57;;;8.00;;
22160;SDS011;49035;48.812;11.762;2023-02-21T07:28:48;13.70;;;8.20;;
22160;SDS011;49035;48.812;11.762;2023-02-21T07:31:13;13.30;;;6.97;;
22160;SDS011;49035;48.812;11.762;2023-02-21T07:33:39;13.20;;;8.00;;
22160;SDS011;49035;48.812;11.762;2023-02-21T07:36:08;15.83;;;8.30;;
22160;SDS011;49035;48.812;11.762;2023-02-21T07:38:34;13.20;;;7.63;;
22160;SDS011;49035;48.812;11.762;2023-02-21T07:41:00;13.90;;;8.87;;
22160;SDS011;49035;48.812;11.762;2023-02-21T07:43:27;14.77;;;8.47;;
22160;SDS011;49035;48.812;11.762;2023-02-21T07:45:54;13.80;;;8.87;;
22160;SDS011;49035;48.812;11.762;2023-02-21T07:48:20;15.10;;;8.80;;
22160;SDS011;49035;48.812;11.762;2023-02-21T07:50:46;19.20;;;9.60;;
22160;SDS011;49035;48.812;11.762;2023-02-21T07:53:12;16.07;;;9.73;;
22160;SDS011;49035;48.812;11.762;2023-02-21T07:55:39;20.77;;;10.93;;
22160;SDS011;49035;48.812;11.762;2023-02-21T07:58:05;20.97;;;10.53;;
22160;SDS011;49035;48.812;11.762;2023-02-21T08:00:31;18.27;;;10.13;;
22160;SDS011;49035;48.812;11.762;2023-02-21T08:02:57;12.80;;;8.30;;
22160;SDS011;49035;48.812;11.762;2023-02-21T08:05:23;13.67;;;8.87;;
22160;SDS011;49035;48.812;11.762;2023-02-21T08:07:49;11.37;;;8.03;;
22160;SDS011;49035;48.812;11.762;2023-02-21T08:10:20;12.33;;;7.70;;
22160;SDS011;49035;48.812;11.762;2023-02-21T08:12:47;11.23;;;7.73;;
22160;SDS011;49035;48.812;11.762;2023-02-21T08:15:13;11.73;;;7.40;;
22160;SDS011;49035;48.812;11.762;2023-02-21T08:17:39;10.33;;;7.07;;
22160;SDS011;49035;48.812;11.762;2023-02-21T08:20:04;13.17;;;7.00;;
22160;SDS011;49035;48.812;11.762;2023-02-21T08:22:31;11.83;;;6.43;;
22160;SDS011;49035;48.812;11.762;2023-02-21T08:24:57;9.13;;;6.87;;
22160;SDS011;49035;48.812;11.762;2023-02-21T08:27:22;10.50;;;6.13;;
22160;SDS011;49035;48.812;11.762;2023-02-21T08:29:48;8.20;;;6.40;;
22160;SDS011;49035;48.812;11.762;2023-02-21T08:32:15;11.43;;;6.17;;
22160;SDS011;49035;48.812;11.762;2023-02-21T08:34:43;10.43;;;5.93;;
22160;SDS011;49035;48.812;11.762;2023-02-21T08:37:10;11.80;;;6.40;;
22160;SDS011;49035;48.812;11.762;2023-02-21T08:39:48;7.53;;;5.97;;
22160;SDS011;49035;48.812;11.762;2023-02-21T08:42:16;7.60;;;5.73;;
22160;SDS011;49035;48.812;11.762;2023-02-21T08:44:42;10.00;;;5.80;;
22160;SDS011;49035;48.812;11.762;2023-02-21T08:47:09;8.27;;;4.87;;
22160;SDS011;49035;48.812;11.762;2023-02-21T08:49:35;8.10;;;5.03;;
22160;SDS011;49035;48.812;11.762;2023-02-21T08:52:06;6.90;;;5.37;;
22160;SDS011;49035;48.812;11.762;2023-02-21T08:54:32;8.90;;;5.40;;
22160;SDS011;49035;48.812;11.762;2023-02-21T08:56:58;6.60;;;5.22;;
22160;SDS011;49035;48.812;11.762;2023-02-21T08:59:24;8.43;;;5.40;;
22160;SDS011;49035;48.812;11.762;2023-02-21T09:01:51;6.07;;;4.93;;
22160;SDS011;49035;48.812;11.762;2023-02-21T09:04:17;8.80;;;5.28;;
22160;SDS011;49035;48.812;11.762;2023-02-21T09:06:42;8.60;;;4.78;;
22160;SDS011;49035;48.812;11.762;2023-02-21T09:09:08;8.20;;;5.20;;
22160;SDS011;49035;48.812;11.762;2023-02-21T09:11:33;5.63;;;4.50;;
22160;SDS011;49035;48.812;11.762;2023-02-21T09:13:59;5.85;;;4.25;;
22160;SDS011;49035;48.812;11.762;2023-02-21T09:16:25;8.18;;;4.82;;
22160;SDS011;49035;48.812;11.762;2023-02-21T09:18:57;8.48;;;4.53;;
22160;SDS011;49035;48.812;11.762;2023-02-21T09:21:24;11.13;;;5.35;;
22160;SDS011;49035;48.812;11.762;2023-02-21T09:23:52;7.72;;;4.60;;
22160;SDS011;49035;48.812;11.762;2023-02-21T09:26:21;11.32;;;4.70;;
22160;SDS011;49035;48.812;11.762;2023-02-21T09:28:48;7.10;;;4.57;;
22160;SDS011;49035;48.812;11.762;2023-02-21T09:31:14;6.85;;;4.68;;
22160;SDS011;49035;48.812;11.762;2023-02-21T09:33:40;8.75;;;4.47;;
22160;SDS011;49035;48.812;11.762;2023-02-21T09:36:09;6.80;;;4.90;;
22160;SDS011;49035;48.812;11.762;2023-02-21T09:38:35;6.07;;;4.80;;
22160;SDS011;49035;48.812;11.762;2023-02-21T09:41:03;5.93;;;4.43;;
22160;SDS011;49035;48.812;11.762;2023-02-21T09:43:31;6.22;;;4.65;;
22160;SDS011;49035;48.812;11.762;2023-02-21T09:46:10;8.15;;;4.63;;
22160;SDS011;49035;48.812;11.762;2023-02-21T09:48:40;5.70;;;3.40;;
22160;SDS011;49035;48.812;11.762;2023-02-21T09:51:08;8.05;;;4.00;;
22160;SDS011;49035;48.812;11.762;2023-02-21T09:53:36;7.60;;;4.07;;
22160;SDS011;49035;48.812;11.762;2023-02-21T09:56:10;4.78;;;3.60;;
22160;SDS011;49035;48.812;11.762;2023-02-21T09:58:55;8.00;;;4.38;;
22160;SDS011;49035;48.812;11.762;2023-02-21T10:01:30;9.13;;;3.90;;
22160;SDS011;49035;48.812;11.762;2023-02-21T10:07:13;8.02;;;4.47;;
22160;SDS011;49035;48.812;11.762;2023-02-21T10:09:48;6.22;;;3.92;;
22160;SDS011;49035;48.812;11.762;2023-02-21T10:17:44;7.05;;;3.40;;
22160;SDS011;49035;48.812;11.762;2023-02-21T10:20:20;8.35;;;4.38;;
22160;SDS011;49035;48.812;11.762;2023-02-21T10:22:51;5.07;;;3.90;;
22160;SDS011;49035;48.812;11.762;2023-02-21T10:25:20;4.57;;;3.80;;
22160;SDS011;49035;48.812;11.762;2023-02-21T10:27:47;9.25;;;3.92;;
22160;SDS011;49035;48.812;11.762;2023-02-21T10:30:19;13.52;;;4.30;;
22160;SDS011;49035;48.812;11.762;2023-02-21T10:32:54;4.60;;;3.80;;
22160;SDS011;49035;48.812;11.762;2023-02-21T10:35:20;8.80;;;4.10;;
22160;SDS011;49035;48.812;11.762;2023-02-21T10:37:46;6.25;;;3.97;;
22160;SDS011;49035;48.812;11.762;2023-02-21T10:43:35;6.45;;;3.92;;
22160;SDS011;49035;48.812;11.762;2023-02-21T10:45:49;4.60;;;3.80;;
22160;SDS011;49035;48.812;11.762;2023-02-21T10:48:20;4.72;;;3.47;;
22160;SDS011;49035;48.812;11.762;2023-02-21T10:53:33;8.98;;;3.45;;
22160;SDS011;49035;48.812;11.762;2023-02-21T11:01:56;5.10;;;3.13;;
22160;SDS011;49035;48.812;11.762;2023-02-21T11:04:01;11.73;;;3.80;;
22160;SDS011;49035;48.812;11.762;2023-02-21T11:08:58;4.90;;;3.03;;
22160;SDS011;49035;48.812;11.762;2023-02-21T11:11:37;6.15;;;3.08;;
22160;SDS011;49035;48.812;11.762;2023-02-21T11:16:42;3.65;;;2.80;;
22160;SDS011;49035;48.812;11.762;2023-02-21T11:19:09;4.05;;;2.90;;
22160;SDS011;49035;48.812;11.762;2023-02-21T11:21:37;5.30;;;2.67;;
22160;SDS011;49035;48.812;11.762;2023-02-21T11:24:05;3.60;;;2.78;;
22160;SDS011;49035;48.812;11.762;2023-02-21T11:26:38;5.07;;;3.20;;
22160;SDS011;49035;48.812;11.762;2023-02-21T11:29:13;5.70;;;3.25;;
22160;SDS011;49035;48.812;11.762;2023-02-21T11:31:42;7.63;;;3.20;;
22160;SDS011;49035;48.812;11.762;2023-02-21T11:34:08;4.00;;;3.00;;
22160;SDS011;49035;48.812;11.762;2023-02-21T11:36:38;6.22;;;3.35;;
22160;SDS011;49035;48.812;11.762;2023-02-21T11:39:15;5.93;;;3.55;;
22160;SDS011;49035;48.812;11.762;2023-02-21T11:46:49;5.60;;;3.17;;
22160;SDS011;49035;48.812;11.762;2023-02-21T11:49:32;5.47;;;3.25;;
22160;SDS011;49035;48.812;11.762;2023-02-21T11:52:05;6.43;;;3.22;;
22160;SDS011;49035;48.812;11.762;2023-02-21T11:54:35;4.95;;;3.50;;
22160;SDS011;49035;48.812;11.762;2023-02-21T11:59:53;4.65;;;3.55;;
22160;SDS011;49035;48.812;11.762;2023-02-21T12:04:55;5.90;;;3.17;;
22160;SDS011;49035;48.812;11.762;2023-02-21T12:13:48;5.15;;;3.35;;
22160;SDS011;49035;48.812;11.762;2023-02-21T12:16:02;5.70;;;3.15;;
22160;SDS011;49035;48.812;11.762;2023-02-21T12:24:06;4.57;;;3.33;;
22160;SDS011;49035;48.812;11.762;2023-02-21T12:26:50;7.15;;;3.40;;
22160;SDS011;49035;48.812;11.762;2023-02-21T12:29:39;5.90;;;2.72;;
22160;SDS011;49035;48.812;11.762;2023-02-21T12:38:13;4.38;;;3.22;;
22160;SDS011;49035;48.812;11.762;2023-02-21T12:44:12;4.05;;;3.13;;
22160;SDS011;49035;48.812;11.762;2023-02-21T12:47:45;5.55;;;3.40;;
22160;SDS011;49035;48.812;11.762;2023-02-21T12:49:53;4.35;;;3.20;;
22160;SDS011;49035;48.812;11.762;2023-02-21T12:52:28;4.07;;;3.35;;
22160;SDS011;49035;48.812;11.762;2023-02-21T12:55:11;7.53;;;3.28;;
22160;SDS011;49035;48.812;11.762;2023-02-21T13:00:59;4.28;;;3.65;;
22160;SDS011;49035;48.812;11.762;2023-02-21T13:09:16;5.03;;;3.50;;
22160;SDS011;49035;48.812;11.762;2023-02-21T13:12:11;5.75;;;3.80;;
22160;SDS011;49035;48.812;11.762;2023-02-21T13:14:46;8.45;;;3.53;;
22160;SDS011;49035;48.812;11.762;2023-02-21T13:17:14;6.20;;;3.53;;
22160;SDS011;49035;48.812;11.762;2023-02-21T13:19:45;6.05;;;3.35;;
22160;SDS011;49035;48.812;11.762;2023-02-21T13:22:17;5.90;;;3.45;;
22160;SDS011;49035;48.812;11.762;2023-02-21T13:25:30;4.80;;;3.03;;
22160;SDS011;49035;48.812;11.762;2023-02-21T13:28:18;6.60;;;3.00;;
22160;SDS011;49035;48.812;11.762;2023-02-21T13:30:49;7.82;;;3.63;;
22160;SDS011;49035;48.812;11.762;2023-02-21T13:33:24;7.22;;;3.10;;
22160;SDS011;49035;48.812;11.762;2023-02-21T13:35:52;7.50;;;3.25;;
22160;SDS011;49035;48.812;11.762;2023-02-21T13:38:22;6.05;;;3.20;;
22160;SDS011;49035;48.812;11.762;2023-02-21T13:40:52;5.13;;;3.33;;
22160;SDS011;49035;48.812;11.762;2023-02-21T13:43:27;6.90;;;3.65;;
22160;SDS011;49035;48.812;11.762;2023-02-21T13:46:21;5.78;;;3.15;;
22160;SDS011;49035;48.812;11.762;2023-02-21T13:57:46;6.20;;;3.33;;
22160;SDS011;49035;48.812;11.762;2023-02-21T14:02:56;8.25;;;4.13;;
22160;SDS011;49035;48.812;11.762;2023-02-21T14:06:14;5.18;;;3.63;;
22160;SDS011;49035;48.812;11.762;2023-02-21T14:08:27;4.95;;;3.30;;
22160;SDS011;49035;48.812;11.762;2023-02-21T14:11:21;6.32;;;3.33;;
22160;SDS011;49035;48.812;11.762;2023-02-21T14:13:49;4.38;;;3.17;;
22160;SDS011;49035;48.812;11.762;2023-02-21T14:21:35;6.40;;;3.50;;
22160;SDS011;49035;48.812;11.762;2023-02-21T14:24:14;5.68;;;3.88;;
22160;SDS011;49035;48.812;11.762;2023-02-21T14:26:56;10.05;;;4.32;;
22160;SDS011;49035;48.812;11.762;2023-02-21T14:32:47;7.10;;;3.95;;
22160;SDS011;49035;48.812;11.762;2023-02-21T14:37:53;5.80;;;3.33;;
22160;SDS011;49035;48.812;11.762;2023-02-21T14:43:21;5.32;;;3.33;;
22160;SDS011;49035;48.812;11.762;2023-02-21T15:05:26;3.70;;;2.88;;
22160;SDS011;49035;48.812;11.762;2023-02-21T15:08:17;4.18;;;2.85;;
22160;SDS011;49035;48.812;11.762;2023-02-21T15:10:45;4.90;;;2.72;;
22160;SDS011;49035;48.812;11.762;2023-02-21T15:16:08;4.95;;;2.92;;
22160;SDS011;49035;48.812;11.762;2023-02-21T15:18:36;4.22;;;2.85;;
22160;SDS011;49035;48.812;11.762;2023-02-21T15:21:19;4.75;;;2.92;;
22160;SDS011;49035;48.812;11.762;2023-02-21T15:23:46;5.93;;;3.20;;
22160;SDS011;49035;48.812;11.762;2023-02-21T15:26:24;2.65;;;2.25;;
22160;SDS011;49035;48.812;11.762;2023-02-21T15:31:50;5.15;;;2.67;;
22160;SDS011;49035;48.812;11.762;2023-02-21T15:34:25;3.33;;;2.38;;
22160;SDS011;49035;48.812;11.762;2023-02-21T15:37:00;4.38;;;2.88;;
22160;SDS011;49035;48.812;11.762;2023-02-21T15:39:54;8.43;;;2.40;;
22160;SDS011;49035;48.812;11.762;2023-02-21T15:42:22;3.60;;;2.05;;
22160;SDS011;49035;48.812;11.762;2023-02-21T15:44:55;5.63;;;2.17;;
22160;SDS011;49035;48.812;11.762;2023-02-21T15:47:26;3.22;;;1.95;;
22160;SDS011;49035;48.812;11.762;2023-02-21T15:52:39;4.22;;;2.38;;
22160;SDS011;49035;48.812;11.762;2023-02-21T15:57:45;3.30;;;2.30;;
22160;SDS011;49035;48.812;11.762;2023-02-21T16:00:32;3.83;;;2.92;;
22160;SDS011;49035;48.812;11.762;2023-02-21T16:05:53;3.83;;;2.53;;
22160;SDS011;49035;48.812;11.762;2023-02-21T16:08:32;5.57;;;2.60;;
22160;SDS011;49035;48.812;11.762;2023-02-21T16:11:02;5.80;;;2.25;;
22160;SDS011;49035;48.812;11.762;2023-02-21T16:13:37;5.63;;;3.65;;
22160;SDS011;49035;48.812;11.762;2023-02-21T16:16:04;8.52;;;3.63;;
22160;SDS011;49035;48.812;11.762;2023-02-21T16:18:32;4.45;;;2.70;;
22160;SDS011;49035;48.812;11.762;2023-02-21T16:20:58;4.60;;;3.60;;
22160;SDS011;49035;48.812;11.762;2023-02-21T16:23:42;7.53;;;5.00;;
22160;SDS011;49035;48.812;11.762;2023-02-21T16:28:38;4.07;;;2.78;;
22160;SDS011;49035;48.812;11.762;2023-02-21T16:31:05;2.88;;;2.20;;
22160;SDS011;49035;48.812;11.762;2023-02-21T16:33:34;3.20;;;1.92;;
22160;SDS011;49035;48.812;11.762;2023-02-21T16:36:03;4.22;;;2.47;;
22160;SDS011;49035;48.812;11.762;2023-02-21T16:38:31;3.50;;;2.60;;
22160;SDS011;49035;48.812;11.762;2023-02-21T16:40:56;6.88;;;2.70;;
22160;SDS011;49035;48.812;11.762;2023-02-21T16:43:23;3.85;;;2.75;;
22160;SDS011;49035;48.812;11.762;2023-02-21T16:45:51;4.38;;;2.88;;
22160;SDS011;49035;48.812;11.762;2023-02-21T16:48:19;5.63;;;3.70;;
22160;SDS011;49035;48.812;11.762;2023-02-21T16:50:49;7.78;;;2.95;;
22160;SDS011;49035;48.812;11.762;2023-02-21T16:53:16;5.25;;;3.45;;
22160;SDS011;49035;48.812;11.762;2023-02-21T16:55:43;5.60;;;3.38;;
22160;SDS011;49035;48.812;11.762;2023-02-21T17:00:59;9.70;;;5.18;;
22160;SDS011;49035;48.812;11.762;2023-02-21T17:03:26;8.18;;;4.80;;
22160;SDS011;49035;48.812;11.762;2023-02-21T17:05:52;8.47;;;4.43;;
22160;SDS011;49035;48.812;11.762;2023-02-21T17:08:19;12.80;;;6.03;;
22160;SDS011;49035;48.812;11.762;2023-02-21T17:10:45;13.40;;;7.30;;
22160;SDS011;49035;48.812;11.762;2023-02-21T17:13:10;10.50;;;7.00;;
22160;SDS011;49035;48.812;11.762;2023-02-21T17:15:36;11.70;;;7.40;;
22160;SDS011;49035;48.812;11.762;2023-02-21T17:18:01;9.37;;;6.27;;
22160;SDS011;49035;48.812;11.762;2023-02-21T17:20:27;9.50;;;5.17;;
22160;SDS011;49035;48.812;11.762;2023-02-21T17:22:54;8.07;;;5.13;;
22160;SDS011;49035;48.812;11.762;2023-02-21T17:25:22;6.07;;;3.43;;
22160;SDS011;49035;48.812;11.762;2023-02-21T17:27:49;8.97;;;5.47;;
22160;SDS011;49035;48.812;11.762;2023-02-21T17:30:16;8.17;;;3.97;;
22160;SDS011;49035;48.812;11.762;2023-02-21T17:32:43;8.17;;;3.53;;
22160;SDS011;49035;48.812;11.762;2023-02-21T17:35:10;6.40;;;3.13;;
22160;SDS011;49035;48.812;11.762;2023-02-21T17:37:38;5.93;;;3.17;;
22160;SDS011;49035;48.812;11.762;2023-02-21T17:40:05;12.80;;;4.57;;
22160;SDS011;49035;48.812;11.762;2023-02-21T17:42:30;8.83;;;3.33;;
22160;SDS011;49035;48.812;11.762;2023-02-21T17:44:56;9.57;;;5.03;;
22160;SDS011;49035;48.812;11.762;2023-02-21T17:47:22;12.93;;;4.33;;